createdAt,value
2018-09-21T00:06:18.000Z,1000.764
2018-09-21T00:16:18.000Z,1000.639
2018-09-21T00:26:18.000Z,1000.437
2018-09-21T00:36:18.000Z,1000.281
2018-09-21T00:46:18.000Z,1000.173
2018-09-21T00:56:18.000Z,1000.1
2018-09-21T01:06:18.000Z,999.94
2018-09-21T01:16:18.000Z,999.806
2018-09-21T01:26:18.000Z,999.587
2018-09-21T01:36:18.000Z,999.545
2018-09-21T01:46:18.000Z,999.35
2018-09-21T01:56:18.000Z,999.219
2018-09-21T02:06:18.000Z,999.049
2018-09-21T02:16:18.000Z,998.811
2018-09-21T02:26:18.000Z,998.726
2018-09-21T02:36:18.000Z,998.597
2018-09-21T02:46:18.000Z,998.347
2018-09-21T02:56:18.000Z,998.12
2018-09-21T03:06:18.000Z,997.759
2018-09-21T03:16:18.000Z,997.557
2018-09-21T03:26:18.000Z,997.483
2018-09-21T03:36:18.000Z,997.136
2018-09-21T03:46:18.000Z,996.841
2018-09-21T03:56:18.000Z,996.571
2018-09-21T04:06:18.000Z,996.378
2018-09-21T04:16:19.000Z,996.138
2018-09-21T04:26:19.000Z,995.953
2018-09-21T04:36:19.000Z,995.983
2018-09-21T04:46:19.000Z,995.811
2018-09-21T04:56:19.000Z,995.636
2018-09-21T05:06:19.000Z,995.539
2018-09-21T05:16:19.000Z,995.399
2018-09-21T05:26:19.000Z,995.323
2018-09-21T05:36:19.000Z,995.221
2018-09-21T05:46:19.000Z,995.206
2018-09-21T05:56:19.000Z,995.104
2018-09-21T06:06:19.000Z,995.094
2018-09-21T06:16:19.000Z,994.934
2018-09-21T06:26:19.000Z,994.997
2018-09-21T06:36:19.000Z,994.97
2018-09-21T06:46:20.000Z,994.808
2018-09-21T06:56:19.000Z,994.966
2018-09-21T07:06:19.000Z,995.173
2018-09-21T07:16:19.000Z,995.058
2018-09-21T07:26:19.000Z,995.256
2018-09-21T07:36:19.000Z,995.33
2018-09-21T07:46:19.000Z,995.103
2018-09-21T07:56:19.000Z,995.319
2018-09-21T08:06:19.000Z,995.239
2018-09-21T08:16:19.000Z,995.314
2018-09-21T08:26:19.000Z,995.23
2018-09-21T08:36:19.000Z,995.001
2018-09-21T08:46:19.000Z,994.96
2018-09-21T08:56:19.000Z,995.049
2018-09-21T09:06:19.000Z,995.296
2018-09-21T09:16:19.000Z,996.413
2018-09-21T09:26:19.000Z,997.224
2018-09-21T09:36:19.000Z,997.456
2018-09-21T09:46:19.000Z,997.433
2018-09-21T09:56:19.000Z,997.646
2018-09-21T10:06:19.000Z,997.803
2018-09-21T10:16:19.000Z,997.94
2018-09-21T10:26:19.000Z,997.962
2018-09-21T10:36:19.000Z,998.284
2018-09-21T10:46:19.000Z,998.343
2018-09-21T10:56:19.000Z,998.329
2018-09-21T11:06:19.000Z,998.35
2018-09-21T11:16:19.000Z,998.64
2018-09-21T11:26:19.000Z,998.75
2018-09-21T11:36:19.000Z,998.63
2018-09-21T11:46:19.000Z,998.717
2018-09-21T11:56:19.000Z,998.931
2018-09-21T12:06:19.000Z,999.056
2018-09-21T12:16:19.000Z,999.232
2018-09-21T12:26:19.000Z,999.261
2018-09-21T12:36:20.000Z,999.436
2018-09-21T12:46:20.000Z,999.514
2018-09-21T12:56:20.000Z,999.854
2018-09-21T13:06:20.000Z,999.928
2018-09-21T13:16:20.000Z,1000.076
2018-09-21T13:26:20.000Z,1000.344
2018-09-21T13:36:20.000Z,1000.412
2018-09-21T13:46:20.000Z,1000.53
2018-09-21T13:56:20.000Z,1000.59
2018-09-21T14:06:20.000Z,1000.759
2018-09-21T14:16:20.000Z,1000.736
2018-09-21T14:26:20.000Z,1001.081
2018-09-21T14:36:20.000Z,1000.964
2018-09-21T14:46:20.000Z,1001.155
2018-09-21T14:56:20.000Z,1001.353
2018-09-21T15:06:20.000Z,1001.474
2018-09-21T15:16:20.000Z,1001.498
2018-09-21T15:26:20.000Z,1001.63
2018-09-21T15:36:20.000Z,1001.76
2018-09-21T15:46:20.000Z,1001.846
2018-09-21T15:56:20.000Z,1001.978
2018-09-21T16:06:20.000Z,1002.013
2018-09-21T16:16:20.000Z,1002.147
2018-09-21T16:26:20.000Z,1002.208
2018-09-21T16:36:20.000Z,1002.185
2018-09-21T16:46:20.000Z,1002.301
2018-09-21T16:56:20.000Z,1002.328
2018-09-21T17:06:20.000Z,1002.415
2018-09-21T17:16:24.000Z,1002.612
2018-09-21T17:26:20.000Z,1002.703
2018-09-21T17:36:20.000Z,1002.88
2018-09-21T17:46:20.000Z,1003.14
2018-09-21T17:56:20.000Z,1003.373
2018-09-21T18:06:20.000Z,1003.49
2018-09-21T18:16:20.000Z,1003.673
2018-09-21T18:26:20.000Z,1003.908
2018-09-21T18:36:20.000Z,1004.006
2018-09-21T18:46:20.000Z,1004.489
2018-09-21T18:56:20.000Z,1004.845
2018-09-21T19:06:20.000Z,1004.766
2018-09-21T19:16:20.000Z,1004.978
2018-09-21T19:26:20.000Z,1005.17
2018-09-21T19:46:20.000Z,1005.467
2018-09-21T19:56:20.000Z,1005.46
2018-09-21T20:06:20.000Z,1005.669
2018-09-21T20:16:20.000Z,1005.565
2018-09-21T20:26:20.000Z,1005.578
2018-09-21T20:36:20.000Z,1005.875
2018-09-21T20:46:20.000Z,1005.716
2018-09-21T20:56:21.000Z,1005.779
2018-09-21T21:06:21.000Z,1005.896
2018-09-21T21:16:23.000Z,1005.718
2018-09-21T21:26:21.000Z,1005.75
2018-09-21T21:36:21.000Z,1005.871
2018-09-21T21:46:21.000Z,1006.385
2018-09-21T21:56:21.000Z,1006.21
2018-09-21T22:06:21.000Z,1006.478
2018-09-21T22:16:21.000Z,1006.714
2018-09-21T22:26:21.000Z,1006.611
2018-09-21T22:36:21.000Z,1006.668
2018-09-21T22:46:22.000Z,1006.973
2018-09-21T22:56:21.000Z,1006.88
2018-09-21T23:06:21.000Z,1006.941
2018-09-21T23:16:21.000Z,1007.016
2018-09-21T23:26:21.000Z,1007.096
2018-09-21T23:36:21.000Z,1007.282
2018-09-21T23:46:21.000Z,1007.454
2018-09-21T23:56:21.000Z,1007.636
